createdAt,value
2023-02-27T00:00:42.048Z,2.92
2023-02-27T00:03:09.373Z,3.50
2023-02-27T00:05:36.532Z,3.10
2023-02-27T00:08:03.974Z,3.35
2023-02-27T00:10:31.259Z,2.67
2023-02-27T00:12:58.430Z,3.28
2023-02-27T00:15:25.666Z,3.20
2023-02-27T00:17:53.041Z,3.10
2023-02-27T00:20:21.548Z,2.65
2023-02-27T00:22:48.772Z,2.95
2023-02-27T00:25:16.350Z,2.95
2023-02-27T00:27:43.699Z,2.90
2023-02-27T00:30:13.058Z,3.47
2023-02-27T00:32:40.580Z,2.97
2023-02-27T00:35:10.352Z,4.00
2023-02-27T00:37:37.936Z,3.47
2023-02-27T00:40:05.640Z,3.63
2023-02-27T00:42:33.260Z,3.53
2023-02-27T00:45:00.516Z,3.35
2023-02-27T00:47:27.751Z,3.15
2023-02-27T00:49:55.044Z,2.95
2023-02-27T00:52:22.295Z,2.40
2023-02-27T00:54:49.559Z,2.83
2023-02-27T00:57:16.878Z,2.40
2023-02-27T00:59:44.449Z,1.95
2023-02-27T01:02:14.115Z,2.40
2023-02-27T01:04:41.392Z,1.87
2023-02-27T01:07:08.985Z,2.00
2023-02-27T01:09:36.335Z,2.15
2023-02-27T01:12:05.697Z,2.03
2023-02-27T01:14:32.920Z,1.80
2023-02-27T01:17:00.264Z,2.10
2023-02-27T01:19:27.896Z,2.25
2023-02-27T01:21:55.182Z,1.98
2023-02-27T01:24:22.515Z,2.00
2023-02-27T01:26:49.882Z,2.40
2023-02-27T01:29:17.194Z,2.60
2023-02-27T01:31:44.640Z,2.38
2023-02-27T01:34:12.013Z,2.97
2023-02-27T01:36:41.201Z,2.72
2023-02-27T01:39:10.671Z,2.83
2023-02-27T01:41:40.246Z,2.83
2023-02-27T01:44:09.301Z,2.90
2023-02-27T01:46:38.244Z,3.33
2023-02-27T01:49:11.905Z,3.20
2023-02-27T01:51:42.011Z,2.78
2023-02-27T01:54:11.557Z,3.27
2023-02-27T01:56:39.235Z,3.78
2023-02-27T01:59:08.346Z,3.40
2023-02-27T02:01:36.630Z,3.03
2023-02-27T02:04:25.534Z,2.72
2023-02-27T02:07:03.651Z,2.20
2023-02-27T02:09:31.733Z,2.70
2023-02-27T02:11:59.914Z,2.40
2023-02-27T02:14:27.632Z,2.83
2023-02-27T02:17:08.836Z,2.35
2023-02-27T02:19:45.199Z,1.90
2023-02-27T02:22:21.494Z,2.28
2023-02-27T02:25:01.079Z,2.80
2023-02-27T02:27:37.642Z,1.90
2023-02-27T02:30:22.214Z,2.05
2023-02-27T02:33:04.741Z,2.43
2023-02-27T02:35:52.196Z,2.28
2023-02-27T02:38:43.675Z,2.20
2023-02-27T02:41:16.135Z,1.88
2023-02-27T02:43:52.654Z,2.20
2023-02-27T02:46:26.205Z,2.10
2023-02-27T02:48:56.372Z,2.00
2023-02-27T02:51:45.490Z,2.10
2023-02-27T02:54:26.678Z,1.98
2023-02-27T02:57:00.511Z,2.22
2023-02-27T02:59:27.731Z,2.00
2023-02-27T03:01:58.382Z,2.25
2023-02-27T03:04:39.025Z,2.00
2023-02-27T03:07:16.534Z,2.70
2023-02-27T03:09:56.122Z,1.85
2023-02-27T03:12:24.922Z,1.73
2023-02-27T03:14:59.093Z,1.75
2023-02-27T03:17:47.312Z,2.58
2023-02-27T03:20:25.969Z,2.17
2023-02-27T03:22:56.342Z,2.30
2023-02-27T03:25:27.072Z,2.00
2023-02-27T03:27:59.109Z,1.73
2023-02-27T03:30:30.257Z,2.00
2023-02-27T03:33:02.630Z,2.00
2023-02-27T03:35:35.760Z,1.47
2023-02-27T03:38:09.011Z,1.70
2023-02-27T03:40:43.593Z,2.00
2023-02-27T03:43:28.270Z,1.90
2023-02-27T03:46:00.772Z,2.00
2023-02-27T03:48:28.158Z,2.00
2023-02-27T03:50:55.736Z,1.80
2023-02-27T03:53:43.179Z,1.95
2023-02-27T03:56:12.499Z,2.13
2023-02-27T03:58:40.391Z,1.80
2023-02-27T04:01:07.605Z,1.60
2023-02-27T04:03:36.271Z,1.88
2023-02-27T04:06:23.941Z,1.70
2023-02-27T04:09:08.559Z,1.80
2023-02-27T04:11:56.025Z,2.00
2023-02-27T04:14:26.025Z,1.80
2023-02-27T04:17:10.114Z,1.60
2023-02-27T04:19:45.297Z,2.08
2023-02-27T04:22:26.417Z,1.80
2023-02-27T04:24:59.021Z,1.83
2023-02-27T04:27:38.777Z,1.77
2023-02-27T04:30:15.333Z,1.92
2023-02-27T04:33:08.208Z,1.80
2023-02-27T04:35:35.394Z,2.13
2023-02-27T04:38:25.873Z,1.92
2023-02-27T04:40:55.552Z,1.88
2023-02-27T04:43:24.648Z,2.30
2023-02-27T04:45:52.534Z,2.03
2023-02-27T04:48:27.530Z,1.83
2023-02-27T04:51:03.821Z,1.90
2023-02-27T04:53:49.317Z,2.00
2023-02-27T04:56:25.930Z,1.70
2023-02-27T04:58:59.354Z,1.75
2023-02-27T05:01:36.276Z,2.05
2023-02-27T05:04:04.796Z,1.88
2023-02-27T05:06:35.724Z,2.08
2023-02-27T05:09:15.682Z,1.50
2023-02-27T05:11:52.968Z,1.90
2023-02-27T05:14:23.175Z,1.85
2023-02-27T05:17:02.553Z,2.00
2023-02-27T05:19:32.683Z,1.95
2023-02-27T05:22:18.403Z,2.23
2023-02-27T05:25:06.311Z,1.80
2023-02-27T05:27:33.598Z,1.95
2023-02-27T05:30:12.525Z,1.60
2023-02-27T05:32:46.722Z,1.93
2023-02-27T05:35:34.148Z,1.65
2023-02-27T05:38:12.838Z,1.60
2023-02-27T05:40:51.593Z,1.80
2023-02-27T05:43:27.703Z,1.80
2023-02-27T05:46:02.582Z,1.83
2023-02-27T05:48:35.592Z,1.90
2023-02-27T05:51:03.983Z,1.65
2023-02-27T05:53:35.183Z,1.90
2023-02-27T05:56:05.171Z,1.90
2023-02-27T05:58:35.988Z,2.25
2023-02-27T06:01:05.537Z,1.70
2023-02-27T06:03:34.767Z,2.20
2023-02-27T06:06:04.200Z,2.00
2023-02-27T06:08:31.941Z,1.98
2023-02-27T06:10:59.192Z,2.10
2023-02-27T06:13:26.552Z,2.05
2023-02-27T06:15:53.942Z,2.07
2023-02-27T06:18:21.571Z,1.83
2023-02-27T06:20:49.130Z,2.10
2023-02-27T06:23:16.109Z,1.88
2023-02-27T06:25:43.410Z,1.80
2023-02-27T06:28:10.755Z,1.95
2023-02-27T06:30:38.312Z,2.20
2023-02-27T06:33:05.650Z,2.10
2023-02-27T06:35:33.120Z,2.22
2023-02-27T06:38:00.327Z,2.30
2023-02-27T06:40:27.607Z,1.80
2023-02-27T06:42:54.954Z,2.10
2023-02-27T06:45:24.250Z,1.80
2023-02-27T06:47:51.569Z,2.22
2023-02-27T06:50:18.916Z,2.65
2023-02-27T06:52:45.713Z,2.15
2023-02-27T06:55:12.997Z,1.80
2023-02-27T06:57:40.673Z,1.95
2023-02-27T07:00:08.311Z,2.60
2023-02-27T07:02:35.518Z,2.58
2023-02-27T07:05:03.166Z,2.33
2023-02-27T07:07:37.849Z,2.40
2023-02-27T07:10:08.317Z,3.28
2023-02-27T07:12:35.577Z,2.72
2023-02-27T07:15:03.033Z,2.65
2023-02-27T07:17:29.831Z,2.40
2023-02-27T07:19:57.067Z,2.78
2023-02-27T07:22:24.313Z,2.65
2023-02-27T07:24:51.573Z,5.32
2023-02-27T07:27:18.800Z,3.53
2023-02-27T07:29:46.382Z,2.23
2023-02-27T07:32:13.584Z,5.15
2023-02-27T07:34:40.830Z,3.63
2023-02-27T07:37:08.163Z,3.75
2023-02-27T07:39:35.515Z,3.00
2023-02-27T07:42:02.790Z,4.10
2023-02-27T07:44:30.228Z,3.42
2023-02-27T07:46:57.469Z,3.53
2023-02-27T07:49:24.677Z,3.42
2023-02-27T07:51:51.510Z,3.15
2023-02-27T07:54:18.843Z,3.23
2023-02-27T07:56:46.309Z,3.40
2023-02-27T07:59:13.576Z,3.53
2023-02-27T08:01:40.847Z,2.80
2023-02-27T08:04:08.042Z,2.42
2023-02-27T08:06:35.237Z,2.57
2023-02-27T08:09:03.055Z,2.50
2023-02-27T08:11:30.361Z,2.17
2023-02-27T08:14:01.769Z,2.25
2023-02-27T08:16:31.436Z,2.30
2023-02-27T08:18:59.366Z,2.80
2023-02-27T08:21:27.233Z,2.20
2023-02-27T08:23:54.682Z,1.65
2023-02-27T08:26:22.429Z,1.83
2023-02-27T08:28:49.650Z,1.98
2023-02-27T08:31:16.911Z,2.00
2023-02-27T08:33:43.954Z,1.83
2023-02-27T08:36:11.260Z,1.90
2023-02-27T08:38:38.726Z,2.03
2023-02-27T08:41:06.049Z,1.83
2023-02-27T08:43:33.276Z,2.50
2023-02-27T08:46:00.393Z,2.20
2023-02-27T08:48:27.712Z,2.38
2023-02-27T08:50:57.419Z,1.85
2023-02-27T08:53:25.663Z,1.90
2023-02-27T08:55:53.473Z,2.30
2023-02-27T08:58:20.779Z,2.38
2023-02-27T09:00:48.344Z,2.30
2023-02-27T09:03:15.914Z,1.80
2023-02-27T09:05:43.429Z,2.88
2023-02-27T09:08:10.772Z,2.20
2023-02-27T09:10:37.665Z,2.30
2023-02-27T09:13:05.143Z,2.10
2023-02-27T09:15:34.424Z,2.75
2023-02-27T09:18:03.335Z,2.28
2023-02-27T09:20:31.712Z,2.20
2023-02-27T09:22:59.644Z,2.20
2023-02-27T09:25:27.396Z,2.45
2023-02-27T09:27:54.669Z,2.30
2023-02-27T09:30:21.963Z,2.83
2023-02-27T09:32:49.473Z,2.70
2023-02-27T09:35:17.024Z,2.20
2023-02-27T09:37:44.082Z,2.10
2023-02-27T09:40:20.024Z,1.60
2023-02-27T09:42:48.595Z,1.58
2023-02-27T09:45:25.246Z,1.97
2023-02-27T09:48:05.757Z,2.03
2023-02-27T09:50:42.545Z,2.42
2023-02-27T09:53:16.855Z,1.70
2023-02-27T09:55:45.981Z,1.95
2023-02-27T09:58:37.891Z,1.60
2023-02-27T10:01:14.328Z,1.80
2023-02-27T10:03:47.186Z,2.50
2023-02-27T10:06:49.102Z,2.00
2023-02-27T10:09:36.844Z,3.03
2023-02-27T10:12:12.651Z,2.13
2023-02-27T10:15:11.553Z,1.90
2023-02-27T10:18:19.851Z,1.92
2023-02-27T10:20:57.819Z,1.60
2023-02-27T10:23:56.467Z,2.10
2023-02-27T10:26:27.670Z,2.30
2023-02-27T10:28:54.926Z,2.05
2023-02-27T10:31:31.432Z,2.60
2023-02-27T10:33:59.256Z,2.13
2023-02-27T10:36:34.182Z,2.60
2023-02-27T10:39:08.105Z,2.40
2023-02-27T10:41:38.071Z,2.50
2023-02-27T10:44:05.448Z,1.90
2023-02-27T10:46:36.430Z,2.60
2023-02-27T10:49:20.950Z,4.57
2023-02-27T10:52:05.820Z,3.13
2023-02-27T10:54:33.006Z,2.13
2023-02-27T10:57:06.366Z,1.77
2023-02-27T10:59:38.830Z,4.53
2023-02-27T11:02:17.767Z,2.63
2023-02-27T11:04:55.727Z,2.33
2023-02-27T11:07:33.756Z,1.60
2023-02-27T11:10:05.748Z,3.55
2023-02-27T11:12:34.967Z,2.50
2023-02-27T11:15:22.140Z,1.80
2023-02-27T11:17:49.862Z,2.70
2023-02-27T11:20:39.869Z,2.03
2023-02-27T11:23:21.642Z,2.00
2023-02-27T11:25:49.331Z,2.20
2023-02-27T11:28:26.573Z,2.10
2023-02-27T11:31:03.610Z,5.37
2023-02-27T11:33:38.102Z,3.17
2023-02-27T11:36:05.668Z,2.55
2023-02-27T11:38:32.978Z,2.42
2023-02-27T11:41:02.546Z,2.22
2023-02-27T11:43:50.911Z,1.70
2023-02-27T11:46:46.302Z,3.65
2023-02-27T11:49:26.497Z,2.70
2023-02-27T11:52:02.364Z,2.13
2023-02-27T11:54:55.435Z,2.75
2023-02-27T11:57:33.708Z,9.13
2023-02-27T12:00:03.978Z,2.50
2023-02-27T12:03:13.615Z,1.92
2023-02-27T12:05:53.632Z,2.17
2023-02-27T12:08:43.486Z,2.30
2023-02-27T12:11:51.230Z,2.27
2023-02-27T12:14:42.725Z,2.35
2023-02-27T12:17:18.557Z,2.40
2023-02-27T12:20:20.012Z,2.50
2023-02-27T12:22:49.315Z,3.08
2023-02-27T12:25:39.932Z,2.40
2023-02-27T12:28:08.180Z,3.30
2023-02-27T12:31:10.613Z,3.83
2023-02-27T12:33:40.097Z,2.75
2023-02-27T12:36:13.114Z,5.40
2023-02-27T12:38:40.278Z,6.80
2023-02-27T12:41:27.571Z,2.22
2023-02-27T12:44:08.589Z,2.97
2023-02-27T12:47:08.723Z,1.95
2023-02-27T12:50:02.555Z,3.85
2023-02-27T12:52:44.164Z,5.78
2023-02-27T12:55:22.952Z,2.85
2023-02-27T12:58:25.061Z,2.30
2023-02-27T13:01:06.131Z,2.50
2023-02-27T13:03:44.745Z,2.63
2023-02-27T13:06:37.280Z,2.53
2023-02-27T13:09:15.184Z,1.83
2023-02-27T13:12:13.294Z,2.30
2023-02-27T13:15:14.667Z,2.63
2023-02-27T13:18:01.688Z,3.20
2023-02-27T13:20:43.021Z,1.93
2023-02-27T13:23:33.286Z,2.00
2023-02-27T13:26:00.783Z,3.15
2023-02-27T13:28:30.227Z,2.90
2023-02-27T13:30:57.431Z,2.63
2023-02-27T13:33:32.348Z,2.60
2023-02-27T13:36:35.612Z,4.18
2023-02-27T13:39:02.899Z,2.67
2023-02-27T13:41:36.072Z,2.50
2023-02-27T13:44:21.376Z,1.90
2023-02-27T13:46:48.570Z,2.15
2023-02-27T13:49:28.117Z,2.50
2023-02-27T13:51:56.675Z,2.95
2023-02-27T13:54:27.283Z,2.75
2023-02-27T13:56:59.856Z,2.10
2023-02-27T13:59:43.496Z,1.90
2023-02-27T14:02:10.777Z,2.40
2023-02-27T14:04:42.979Z,2.03
2023-02-27T14:07:15.414Z,2.50
2023-02-27T14:09:46.294Z,2.83
2023-02-27T14:12:42.624Z,2.37
2023-02-27T14:15:11.939Z,2.47
2023-02-27T14:17:41.372Z,2.75
2023-02-27T14:20:31.096Z,2.10
2023-02-27T14:23:16.103Z,1.90
2023-02-27T14:25:49.836Z,2.30
2023-02-27T14:28:23.816Z,1.80
2023-02-27T14:31:01.528Z,4.15
2023-02-27T14:33:41.691Z,2.03
2023-02-27T14:36:15.677Z,2.50
2023-02-27T14:38:43.011Z,2.67
2023-02-27T14:41:33.553Z,2.50
2023-02-27T14:44:01.236Z,2.10
2023-02-27T14:46:39.391Z,2.75
2023-02-27T14:49:29.346Z,2.00
2023-02-27T14:51:57.054Z,2.22
2023-02-27T14:54:26.094Z,2.00
2023-02-27T14:56:58.791Z,2.80
2023-02-27T14:59:33.369Z,3.65
2023-02-27T15:02:04.423Z,2.80
2023-02-27T15:04:33.143Z,2.47
2023-02-27T15:07:01.038Z,2.92
2023-02-27T15:09:34.718Z,3.15
2023-02-27T15:12:04.269Z,2.92
2023-02-27T15:14:36.525Z,3.10
2023-02-27T15:17:14.821Z,3.15
2023-02-27T15:19:50.561Z,2.70
2023-02-27T15:22:37.990Z,3.05
2023-02-27T15:25:08.181Z,2.92
2023-02-27T15:27:37.440Z,2.60
2023-02-27T15:30:05.012Z,9.77
2023-02-27T15:32:35.976Z,4.22
2023-02-27T15:35:06.104Z,2.28
2023-02-27T15:37:35.397Z,2.40
2023-02-27T15:40:02.854Z,5.57
2023-02-27T15:42:34.994Z,2.40
2023-02-27T15:45:04.161Z,3.22
2023-02-27T15:47:32.495Z,3.50
2023-02-27T15:50:32.175Z,5.22
2023-02-27T15:53:13.681Z,4.15
2023-02-27T15:55:46.007Z,3.93
2023-02-27T15:58:25.908Z,3.42
2023-02-27T16:01:02.750Z,3.47
2023-02-27T16:03:37.869Z,3.50
2023-02-27T16:06:19.130Z,3.88
2023-02-27T16:08:58.590Z,3.17
2023-02-27T16:11:31.175Z,4.63
2023-02-27T16:13:58.682Z,3.60
2023-02-27T16:16:55.225Z,3.58
2023-02-27T16:19:31.395Z,3.30
2023-02-27T16:22:15.967Z,2.90
2023-02-27T16:24:43.541Z,2.95
2023-02-27T16:27:28.383Z,2.70
2023-02-27T16:30:02.946Z,2.72
2023-02-27T16:32:41.988Z,3.38
2023-02-27T16:35:20.377Z,3.40
2023-02-27T16:37:47.955Z,2.70
2023-02-27T16:40:24.614Z,4.13
2023-02-27T16:42:52.374Z,5.60
2023-02-27T16:45:25.198Z,5.90
2023-02-27T16:47:54.924Z,6.63
2023-02-27T16:50:24.660Z,6.10
2023-02-27T16:52:51.973Z,4.05
2023-02-27T16:55:19.254Z,3.50
2023-02-27T16:57:46.488Z,2.60
2023-02-27T17:00:15.527Z,4.40
2023-02-27T17:02:43.147Z,4.50
2023-02-27T17:05:10.635Z,4.57
2023-02-27T17:07:37.994Z,4.30
2023-02-27T17:10:05.535Z,4.28
2023-02-27T17:12:32.808Z,3.53
2023-02-27T17:15:00.089Z,3.20
2023-02-27T17:17:27.458Z,4.05
2023-02-27T17:19:54.957Z,3.90
2023-02-27T17:22:22.180Z,2.10
2023-02-27T17:24:49.449Z,3.30
2023-02-27T17:27:16.692Z,2.78
2023-02-27T17:29:43.974Z,2.90
2023-02-27T17:32:11.389Z,2.92
2023-02-27T17:34:38.692Z,2.60
2023-02-27T17:37:05.929Z,3.20
2023-02-27T17:39:33.471Z,6.00
2023-02-27T17:42:00.709Z,4.40
2023-02-27T17:44:28.145Z,10.30
2023-02-27T17:46:55.594Z,8.32
2023-02-27T17:49:22.949Z,6.30
2023-02-27T17:51:50.354Z,5.07
2023-02-27T17:54:17.697Z,4.32
2023-02-27T17:56:45.130Z,4.65
2023-02-27T17:59:12.399Z,4.95
2023-02-27T18:01:39.687Z,4.53
2023-02-27T18:04:08.068Z,7.47
2023-02-27T18:06:35.350Z,6.30
2023-02-27T18:09:02.628Z,7.72
2023-02-27T18:11:29.912Z,5.57
2023-02-27T18:13:57.247Z,5.03
2023-02-27T18:16:24.911Z,6.03
2023-02-27T18:18:52.340Z,5.93
2023-02-27T18:21:21.399Z,5.70
2023-02-27T18:23:49.054Z,5.30
2023-02-27T18:26:30.787Z,6.10
2023-02-27T18:29:00.369Z,7.40
2023-02-27T18:31:33.220Z,5.15
2023-02-27T18:34:01.003Z,6.38
2023-02-27T18:36:29.365Z,12.10
2023-02-27T18:38:56.852Z,9.67
2023-02-27T18:41:24.190Z,8.45
2023-02-27T18:43:51.860Z,7.28
2023-02-27T18:46:19.196Z,5.78
2023-02-27T18:48:47.028Z,5.07
2023-02-27T18:51:15.878Z,4.90
2023-02-27T18:53:48.097Z,5.20
2023-02-27T18:56:17.390Z,7.35
2023-02-27T18:58:44.991Z,8.93
2023-02-27T19:01:21.401Z,9.60
2023-02-27T19:03:48.869Z,7.10
2023-02-27T19:06:16.234Z,9.43
2023-02-27T19:08:43.600Z,7.07
2023-02-27T19:11:10.825Z,6.53
2023-02-27T19:13:38.146Z,6.38
2023-02-27T19:16:05.677Z,6.60
2023-02-27T19:18:33.034Z,6.65
2023-02-27T19:21:06.392Z,6.57
2023-02-27T19:23:33.699Z,5.45
2023-02-27T19:26:01.240Z,5.03
2023-02-27T19:28:28.732Z,5.03
2023-02-27T19:30:57.460Z,4.78
2023-02-27T19:33:25.156Z,5.05
2023-02-27T19:35:52.584Z,4.68
2023-02-27T19:38:19.862Z,4.82
2023-02-27T19:40:47.115Z,4.93
2023-02-27T19:43:15.436Z,4.30
2023-02-27T19:45:42.804Z,4.65
2023-02-27T19:48:11.344Z,4.72
2023-02-27T19:50:40.316Z,4.38
2023-02-27T19:53:08.200Z,3.97
2023-02-27T19:55:35.501Z,4.10
2023-02-27T19:58:02.822Z,3.75
2023-02-27T20:00:31.211Z,3.88
2023-02-27T20:02:58.605Z,4.20
2023-02-27T20:05:26.036Z,3.93
2023-02-27T20:07:53.532Z,3.47
2023-02-27T20:10:20.782Z,3.05
2023-02-27T20:12:48.517Z,6.47
2023-02-27T20:15:15.792Z,11.48
2023-02-27T20:17:43.914Z,7.57
2023-02-27T20:20:11.518Z,5.15
2023-02-27T20:22:43.279Z,3.97
2023-02-27T20:25:10.784Z,4.47
2023-02-27T20:27:38.289Z,5.57
2023-02-27T20:30:05.848Z,3.90
2023-02-27T20:32:33.283Z,5.03
2023-02-27T20:35:00.568Z,4.30
2023-02-27T20:37:31.904Z,4.88
2023-02-27T20:39:59.305Z,3.75
2023-02-27T20:42:26.610Z,2.87
2023-02-27T20:44:53.991Z,3.28
2023-02-27T20:47:21.369Z,4.28
2023-02-27T20:49:48.614Z,4.00
2023-02-27T20:52:15.947Z,4.40
2023-02-27T20:54:43.153Z,3.83
2023-02-27T20:57:10.382Z,3.83
2023-02-27T20:59:37.601Z,4.78
2023-02-27T21:02:06.858Z,3.25
2023-02-27T21:04:43.493Z,2.70
2023-02-27T21:07:15.798Z,2.87
2023-02-27T21:09:43.315Z,2.70
2023-02-27T21:12:10.626Z,2.80
2023-02-27T21:14:38.015Z,2.40
2023-02-27T21:17:05.516Z,2.80
2023-02-27T21:19:33.054Z,2.70
2023-02-27T21:22:00.393Z,2.63
2023-02-27T21:24:27.625Z,2.95
2023-02-27T21:26:54.896Z,3.08
2023-02-27T21:29:22.275Z,3.00
2023-02-27T21:31:50.892Z,2.53
2023-02-27T21:34:21.376Z,3.30
2023-02-27T21:36:49.035Z,3.15
2023-02-27T21:39:22.275Z,3.38
2023-02-27T21:41:49.578Z,2.75
2023-02-27T21:44:18.878Z,2.80
2023-02-27T21:46:46.317Z,3.10
2023-02-27T21:49:20.211Z,2.95
2023-02-27T21:51:47.550Z,3.38
2023-02-27T21:54:15.981Z,3.30
2023-02-27T21:56:43.700Z,3.80
2023-02-27T21:59:11.034Z,3.47
2023-02-27T22:01:38.636Z,3.67
2023-02-27T22:04:05.951Z,3.38
2023-02-27T22:06:34.042Z,3.63
2023-02-27T22:09:05.002Z,3.33
2023-02-27T22:11:33.188Z,3.35
2023-02-27T22:14:00.765Z,3.60
2023-02-27T22:16:28.194Z,3.40
2023-02-27T22:18:55.461Z,3.60
2023-02-27T22:21:25.186Z,3.30
2023-02-27T22:23:52.592Z,3.40
2023-02-27T22:26:24.066Z,3.22
2023-02-27T22:28:53.318Z,3.03
2023-02-27T22:31:32.611Z,3.20
2023-02-27T22:34:08.675Z,2.97
2023-02-27T22:36:36.417Z,3.28
2023-02-27T22:39:04.792Z,3.65
2023-02-27T22:41:34.909Z,3.60
2023-02-27T22:44:02.606Z,2.90
2023-02-27T22:46:42.353Z,3.20
2023-02-27T22:49:17.880Z,2.92
2023-02-27T22:51:45.508Z,3.40
2023-02-27T22:54:14.211Z,4.00
2023-02-27T22:56:42.008Z,3.10
2023-02-27T22:59:09.279Z,2.87
2023-02-27T23:01:37.377Z,3.80
2023-02-27T23:04:07.316Z,4.05
2023-02-27T23:06:37.466Z,3.45
2023-02-27T23:09:06.824Z,3.40
2023-02-27T23:11:34.045Z,3.00
2023-02-27T23:14:01.388Z,3.10
2023-02-27T23:16:28.790Z,3.03
2023-02-27T23:18:58.038Z,2.75
2023-02-27T23:21:29.874Z,3.13
2023-02-27T23:24:00.092Z,2.70
2023-02-27T23:26:28.421Z,3.30
2023-02-27T23:28:56.290Z,3.50
2023-02-27T23:31:23.554Z,4.32
2023-02-27T23:33:50.770Z,4.15
2023-02-27T23:36:18.165Z,3.67
2023-02-27T23:38:46.699Z,3.63
2023-02-27T23:41:17.197Z,3.70
2023-02-27T23:43:45.668Z,3.95
2023-02-27T23:46:15.103Z,3.90
2023-02-27T23:48:42.967Z,2.70
2023-02-27T23:51:10.756Z,2.80
2023-02-27T23:53:39.246Z,2.83
2023-02-27T23:56:16.904Z,2.60
2023-02-27T23:58:45.142Z,3.55
